STAZIONE METEO DI BARCELLONA P.G. CENTRO
Dati campionati ogni minuto da Consolle Davis Vantage Pro 2
ed inviati alla rete mediante server Anemos WDS5 wview



Barcellona P.G. Centro more information Barcellona P.G. Centro


Golfo di Patti more information Golfo di Patti


avvertimento per Temporali more information blitzortung!


avvertimento per Pioggia  rain snow radar


altri nostri siti meteo:

Rete NOAA MADIS

Italia Meteo Network

Pomeziameteo

Varazze Meteo



Ci sono vari avvisi meteo   Clicca qui per altre informazioni

Report METAR

   
LICF - Barcellona Pozzo di Gotto
Dati ricevuti: 19-10-2018 23:55
Sereno  
Sereno  
   Vento: NNW 5.6 km/h
Vento: NNW 5.6 km/h
Temperatura: 21°C
P.to Rugiada: 19°C
Umidità: 88%
Barometro: 1016 hPa
Visibilità: oltre 10 km
dettagli cloud: Sereno
LICF 192155Z 33003KT CAVOK 21/19 Q1016 RMK FEW FEW100 QUK / QUL / VIS MAR 12 KM MON INVIS NC VIS MIN 9999
LICC - Catania
Dati ricevuti: 19-10-2018 23:50
Molto nuvoloso  
Molto nuvoloso  
   Vento: Oriente 13 km/h
Vento: Oriente 13 km/h
Temperatura: 22°C
P.to Rugiada: 18°C
Umidità: 78%
Barometro: 1017 hPa
Nuvole: Molto nuvoloso
Visibilità: oltre 10 km
dettagli cloud: Parzialmente nuvoloso 1500 ft,
Molto nuvoloso 3500 ft
LICC 192150Z 09007KT 9999 SCT015 BKN035 22/18 Q1017
LICJ - Palermo
Dati ricevuti: 19-10-2018 23:50
Sereno  
Sereno  
   Vento: Sud 7.4 km/h
Vento: Sud 7.4 km/h
Temperatura: 20°C
P.to Rugiada: 18°C
Umidità: 88%
Barometro: 1017 hPa
Visibilità: oltre 10 km
dettagli cloud: Sereno
LICJ 192150Z 18004KT CAVOK 20/18 Q1017
LICF - Messina
Dati ricevuti: 19-10-2018 23:55
Sereno  
Sereno  
   Vento: NNW 5.6 km/h
Vento: NNW 5.6 km/h
Temperatura: 21°C
P.to Rugiada: 19°C
Umidità: 88%
Barometro: 1016 hPa
Visibilità: oltre 10 km
dettagli cloud: Sereno
LICF 192155Z 33003KT CAVOK 21/19 Q1016 RMK FEW FEW100 QUK / QUL / VIS MAR 12 KM MON INVIS NC VIS MIN 9999
LICC - Milazzo
Dati ricevuti: 19-10-2018 23:50
Molto nuvoloso  
Molto nuvoloso  
   Vento: Oriente 13 km/h
Vento: Oriente 13 km/h
Temperatura: 22°C
P.to Rugiada: 18°C
Umidità: 78%
Barometro: 1017 hPa
Nuvole: Molto nuvoloso
Visibilità: oltre 10 km
dettagli cloud: Parzialmente nuvoloso 1500 ft,
Molto nuvoloso 3500 ft
LICC 192150Z 09007KT 9999 SCT015 BKN035 22/18 Q1017
LICC - Terme Vigliatore
Dati ricevuti: 19-10-2018 23:50
Molto nuvoloso  
Molto nuvoloso  
   Vento: Oriente 13 km/h
Vento: Oriente 13 km/h
Temperatura: 22°C
P.to Rugiada: 18°C
Umidità: 78%
Barometro: 1017 hPa
Nuvole: Molto nuvoloso
Visibilità: oltre 10 km
dettagli cloud: Parzialmente nuvoloso 1500 ft,
Molto nuvoloso 3500 ft
LICC 192150Z 09007KT 9999 SCT015 BKN035 22/18 Q1017
LICT - Trapani
Dati ricevuti: 19-10-2018 23:55
Poche nuvole  
Poche nuvole  
   Vento: Oriente 3.7 km/h
Vento: Oriente 3.7 km/h
Temperatura: 18°C
P.to Rugiada: 16°C
Umidità: 88%
Barometro: 1017 hPa
Nuvole: Poche nuvole
Visibilità: oltre 10 km
dettagli cloud: Poche nuvole 2200 ft
LICT 192155Z 10002KT 9999 FEW022 18/16 Q1017
  

Script sviluppato da  Saratoga-weather.org Adattato per il modello da  Weerstation Leuven

Potete trovare le nostre info meteo anche a:

European Weather Network

Weather Underground

AWEKAS

Citizen Weather Observer Program (CWOP)

HAMweather, WeatherForYou, PWS Weather

Strumentazione usata:

Stazione meteo
Davis VP2

Programma gestore dati meteo
WVIEW

Server per i dati meteo
WDS5 Ecoblack

Davis VP2

WVIEW

WDS5 Ecoblack